Time;durP1;ratioP1;P1;durP2;ratioP2;P2;SDS_P1;SDS_P2;PMS_P1;PMS_P2;Temp;Humidity;BMP_temperature;BMP_pressure;BME280_temperature;BME280_humidity;BME280_pressure;Samples;Min_cycle;Max_cycle;Signal;HPM_P1;HPM_P2
2022/03/03 00:01:26;;;;;;;70.20;38.23;;;;;;;;;;5072746;28;20048;-79
2022/03/03 00:04:10;;;;;;;67.27;33.93;;;;;;;;;;5073658;28;20034;-80
2022/03/03 00:06:55;;;;;;;70.83;35.40;;;;;;;;;;5073172;28;20048;-79
2022/03/03 00:09:39;;;;;;;77.17;35.97;;;;;;;;;;5073071;28;20097;-79
2022/03/03 00:12:24;;;;;;;62.50;33.63;;;2.00;99.90;;;;;;5072586;28;20105;-80
2022/03/03 00:15:09;;;;;;;66.73;33.87;;;;;;;;;;5073705;28;20541;-81
2022/03/03 00:17:53;;;;;;;71.23;35.63;;;1.70;99.90;;;;;;5073204;28;20067;-79
2022/03/03 00:20:38;;;;;;;67.50;34.70;;;;;;;;;;5078089;28;20047;-79
2022/03/03 00:23:22;;;;;;;72.83;37.00;;;1.50;99.90;;;;;;5092321;28;20144;-79
2022/03/03 00:26:06;;;;;;;;;;;3.40;99.90;;;;;;5093347;28;20140;-79
2022/03/03 00:28:50;;;;;;;61.00;32.95;;;2.20;99.90;;;;;;5093337;28;19919;-79
2022/03/03 00:31:34;;;;;;;;;;;1.40;99.90;;;;;;5092951;28;20063;-79
2022/03/03 00:34:18;;;;;;;72.40;34.63;;;1.40;99.90;;;;;;5092371;28;19969;-79
2022/03/03 00:37:03;;;;;;;69.77;35.00;;;;;;;;;;5063722;28;20047;-80
2022/03/03 00:39:48;;;;;;;72.10;36.63;;;;;;;;;;5078175;28;20043;-79
2022/03/03 00:42:32;;;;;;;75.97;38.40;;;1.30;99.90;;;;;;5071942;28;20051;-80
2022/03/03 00:45:16;;;;;;;;;;;1.40;99.90;;;;;;5056903;28;20128;-80
2022/03/03 00:48:01;;;;;;;69.60;34.05;;;1.30;99.90;;;;;;5072528;28;19943;-80
2022/03/03 00:50:46;;;;;;;70.87;35.13;;;;;;;;;;5072348;28;20167;-79
2022/03/03 00:53:30;;;;;;;72.27;36.07;;;;;;;;;;5071712;28;20102;-79
2022/03/03 00:56:15;;;;;;;70.07;36.60;;;;;;;;;;5071994;28;20067;-81
2022/03/03 00:59:00;;;;;;;76.77;36.43;;;;;;;;;;5073394;28;20090;-79
2022/03/03 01:01:44;;;;;;;75.23;36.63;;;;;;;;;;5072391;28;20120;-79
2022/03/03 01:04:28;;;;;;;69.87;36.03;;;1.20;99.90;;;;;;5071810;28;20051;-79
2022/03/03 01:07:12;;;;;;;;;;;1.30;99.90;;;;;;5043380;28;20098;-79
2022/03/03 01:09:57;;;;;;;70.28;35.42;;;1.20;99.90;;;;;;5072176;28;19951;-79
2022/03/03 01:12:41;;;;;;;69.73;36.17;;;2.30;99.90;;;;;;5073147;28;20054;-79
2022/03/03 01:15:26;;;;;;;67.10;35.60;;;2.30;99.90;;;;;;5071698;28;20079;-79
2022/03/03 01:18:11;;;;;;;68.33;34.90;;;;;;;;;;5071922;28;20071;-80
2022/03/03 01:20:55;;;;;;;68.33;35.60;;;;;;;;;;5072279;28;20044;-79
2022/03/03 01:23:40;;;;;;;71.37;36.97;;;;;;;;;;5071528;28;20035;-80
2022/03/03 01:26:24;;;;;;;68.17;35.17;;;;;;;;;;5056256;28;20040;-80
2022/03/03 01:29:10;;;;;;;69.73;35.57;;;;;;;;;;5057060;28;20066;-79
2022/03/03 01:31:54;;;;;;;68.60;35.10;;;;;;;;;;5072342;28;20449;-79
2022/03/03 01:34:39;;;;;;;72.73;35.50;;;;;;;;;;5088996;28;20617;-79
2022/03/03 01:37:23;;;;;;;68.70;34.50;;;1.00;99.90;;;;;;5091199;28;20043;-79
2022/03/03 01:40:09;;;;;;;73.97;35.87;;;1.60;99.90;;;;;;5076949;28;20059;-80
2022/03/03 01:42:54;;;;;;;71.23;37.00;;;;;;;;;;5092124;28;20040;-79
2022/03/03 01:45:38;;;;;;;73.23;36.40;;;1.00;99.90;;;;;;5091431;28;20059;-80
2022/03/03 01:48:21;;;;;;;;;;;3.30;99.90;;;;;;5092024;28;20098;-81
2022/03/03 01:51:06;;;;;;;70.70;34.00;;;;;;;;;;5092097;28;19919;-79
2022/03/03 01:53:51;;;;;;;65.00;32.73;;;;;;;;;;5067793;28;20047;-79
2022/03/03 01:56:35;;;;;;;67.20;33.10;;;;;;;;;;5079706;28;20043;-80
2022/03/03 01:59:20;;;;;;;74.67;34.80;;;;;;;;;;5092138;28;20395;-79
2022/03/03 02:02:09;;;;;;;68.33;33.17;;;0.60;99.90;;;;;;5093451;28;20039;-80
2022/03/03 02:04:54;;;;;;;60.73;34.33;;;0.50;99.90;;;;;;5094966;28;20039;-79
2022/03/03 02:07:39;;;;;;;64.93;33.47;;;;;;;;;;5080157;28;20412;-80
2022/03/03 02:10:24;;;;;;;70.73;34.83;;;0.40;99.90;;;;;;5094370;28;20111;-81
2022/03/03 02:13:08;;;;;;;69.37;33.93;;;0.30;99.90;;;;;;5085805;28;20063;-80
2022/03/03 02:15:54;;;;;;;66.27;33.80;;;0.30;99.90;;;;;;5092293;28;20097;-79
2022/03/03 02:18:43;;;;;;;68.83;33.10;;;0.20;99.90;;;;;;5090591;28;20150;-79
2022/03/03 02:21:27;;;;;;;66.63;34.93;;;0.90;99.90;;;;;;5074571;28;20063;-81
2022/03/03 02:24:11;;;;;;;71.13;34.70;;;1.80;99.90;;;;;;5060227;28;20043;-79
2022/03/03 02:26:56;;;;;;;69.10;33.73;;;;;;;;;;5075224;28;20048;-80
2022/03/03 02:29:41;;;;;;;67.43;34.23;;;0.00;99.90;;;;;;5079358;28;20051;-79
2022/03/03 02:32:25;;;;;;;66.23;32.97;;;0.20;99.90;;;;;;5080092;28;20453;-80
2022/03/03 02:35:09;;;;;;;75.22;37.90;;;1.10;99.90;;;;;;5095385;28;20078;-79
2022/03/03 02:37:54;;;;;;;69.23;34.30;;;0.80;99.90;;;;;;5065829;28;20531;-79
2022/03/03 02:40:38;;;;;;;;;;;0.10;99.90;;;;;;5095203;28;20090;-80
2022/03/03 02:43:22;;;;;;;76.65;34.63;;;0.00;99.90;;;;;;5079964;28;19919;-79
2022/03/03 02:46:07;;;;;;;64.47;32.10;;;1.50;99.90;;;;;;5093835;28;20508;-79
2022/03/03 02:48:51;;;;;;;67.57;33.33;;;0.00;99.90;;;;;;5093838;28;20066;-80
2022/03/03 02:51:36;;;;;;;;;;;-0.10;99.90;;;;;;5079565;28;20081;-80
2022/03/03 02:54:21;;;;;;;63.27;31.80;;;-0.10;99.90;;;;;;5095004;28;20002;-79
2022/03/03 03:00:09;;;;;;;67.43;34.50;;;-0.20;99.90;;;;;;5070669;28;20569;-79
2022/03/03 03:02:53;;;;;;;76.17;36.97;;;-0.20;99.90;;;;;;5092557;28;20039;-80
2022/03/03 03:05:37;;;;;;;68.13;33.30;;;-0.20;99.90;;;;;;5063037;28;20047;-80
2022/03/03 03:08:22;;;;;;;;;;;0.30;99.90;;;;;;5095193;28;20092;-80
2022/03/03 03:11:06;;;;;;;70.13;32.00;;;-0.30;99.90;;;;;;5094728;28;19970;-80
2022/03/03 03:13:49;;;;;;;;;;;-0.30;99.90;;;;;;5094123;28;20195;-80
2022/03/03 03:16:34;;;;;;;70.80;32.78;;;-0.30;99.90;;;;;;5094079;28;19915;-82
2022/03/03 03:19:18;;;;;;;68.60;34.23;;;-0.40;99.90;;;;;;5079121;28;20055;-80
2022/03/03 03:22:03;;;;;;;61.47;32.20;;;-0.10;99.90;;;;;;5079182;28;20598;-79
2022/03/03 03:24:48;;;;;;;74.20;37.33;;;-0.50;99.90;;;;;;5064302;28;20043;-80
2022/03/03 03:27:32;;;;;;;;;;;-0.50;99.90;;;;;;5082053;28;20073;-80
2022/03/03 03:30:16;;;;;;;67.57;34.63;;;-0.50;99.90;;;;;;5074137;28;19982;-80
2022/03/03 03:33:00;;;;;;;65.97;32.93;;;-0.50;99.90;;;;;;5073827;28;20404;-80
2022/03/03 03:35:45;;;;;;;66.30;34.23;;;-0.50;99.90;;;;;;5058099;28;20149;-81
2022/03/03 03:38:29;;;;;;;69.20;34.53;;;-0.60;99.90;;;;;;5044723;28;20086;-80
2022/03/03 03:41:13;;;;;;;;;;;0.40;99.90;;;;;;5074309;28;20047;-80
2022/03/03 03:43:57;;;;;;;71.32;34.55;;;-0.20;99.90;;;;;;5074298;28;19926;-80
2022/03/03 03:46:41;;;;;;;74.20;35.97;;;-0.60;99.90;;;;;;5057930;28;20102;-81
2022/03/03 03:49:27;;;;;;;76.57;34.87;;;-0.60;99.90;;;;;;5073754;28;20214;-80
2022/03/03 03:52:11;;;;;;;74.57;34.67;;;-0.60;99.90;;;;;;5073522;28;20051;-80
2022/03/03 03:54:55;;;;;;;;;;;-0.50;99.90;;;;;;5073511;28;20082;-80
2022/03/03 03:57:40;;;;;;;68.10;35.33;;;0.20;99.90;;;;;;5073010;28;19920;-81
2022/03/03 04:00:24;;;;;;;70.90;36.67;;;-0.40;99.90;;;;;;5073511;28;20106;-80
2022/03/03 04:03:08;;;;;;;73.83;37.47;;;-0.30;99.90;;;;;;5073371;28;20512;-80
2022/03/03 04:05:53;;;;;;;68.83;36.27;;;-0.20;99.90;;;;;;5088576;28;20082;-80
2022/03/03 04:08:37;;;;;;;69.60;37.50;;;-0.20;99.90;;;;;;5078400;28;20089;-80
2022/03/03 04:11:21;;;;;;;;;;;-0.10;99.90;;;;;;5094034;28;20046;-80
2022/03/03 04:14:05;;;;;;;71.13;35.17;;;1.00;99.90;;;;;;5093544;28;19915;-80
2022/03/03 04:16:49;;;;;;;;;;;-0.10;99.90;;;;;;5093373;28;20450;-80
2022/03/03 04:19:34;;;;;;;62.47;33.72;;;-0.10;99.90;;;;;;5093400;28;20371;-80
2022/03/03 04:22:19;;;;;;;67.00;34.60;;;0.50;99.90;;;;;;5091422;28;20039;-80
2022/03/03 04:25:03;;;;;;;68.83;35.13;;;0.00;99.90;;;;;;5088013;28;20059;-80
2022/03/03 04:27:47;;;;;;;72.13;34.37;;;0.00;99.90;;;;;;5072492;28;20082;-80
2022/03/03 04:30:31;;;;;;;;;;;0.60;99.90;;;;;;5073542;28;20094;-80
2022/03/03 04:33:16;;;;;;;66.90;33.22;;;-0.10;99.90;;;;;;5072886;28;20438;-80
2022/03/03 04:36:00;;;;;;;59.83;31.27;;;-0.10;99.90;;;;;;5072324;28;20040;-80
2022/03/03 04:38:47;;;;;;;62.70;33.87;;;-0.10;99.90;;;;;;5057152;28;20039;-81
2022/03/03 04:41:32;;;;;;;58.57;31.43;;;0.00;99.90;;;;;;5072885;28;20120;-80
2022/03/03 04:44:16;;;;;;;;;;;-0.10;99.90;;;;;;5073105;28;20040;-80
2022/03/03 04:47:00;;;;;;;58.22;29.08;;;-0.10;99.90;;;;;;5057030;28;19927;-80
2022/03/03 04:49:45;;;;;;;57.33;30.70;;;-0.10;99.90;;;;;;5071367;28;20451;-81
2022/03/03 04:52:29;;;;;;;59.53;31.13;;;-0.10;99.90;;;;;;5057397;28;20091;-80
2022/03/03 04:55:13;;;;;;;56.08;29.95;;;0.30;99.90;;;;;;5072546;28;20039;-80
2022/03/03 04:57:56;;;;;;;;;;;-0.10;99.90;;;;;;5072478;28;20100;-80
2022/03/03 05:00:41;;;;;;;53.17;28.23;;;-0.10;99.90;;;;;;5072475;28;19915;-80
2022/03/03 05:03:25;;;;;;;56.30;30.77;;;-0.10;99.90;;;;;;5072352;28;20058;-81
2022/03/03 05:06:09;;;;;;;;;;;0.40;99.90;;;;;;5089510;28;20054;-80
2022/03/03 05:08:53;;;;;;;57.70;29.23;;;-0.10;99.90;;;;;;5092064;28;19923;-80
2022/03/03 05:11:37;;;;;;;;;;;-0.10;99.90;;;;;;5092990;28;20071;-80
2022/03/03 05:14:21;;;;;;;52.05;29.45;;;-0.10;99.90;;;;;;5092767;28;19919;-80
2022/03/03 05:17:06;;;;;;;;;;;-0.20;99.90;;;;;;5092272;28;20047;-80
2022/03/03 05:19:50;;;;;;;57.75;29.13;;;-0.20;99.90;;;;;;5087297;28;20275;-81
2022/03/03 05:22:34;;;;;;;53.92;29.83;;;-0.20;99.90;;;;;;5072436;28;20488;-80
2022/03/03 05:25:18;;;;;;;55.30;31.03;;;0.30;99.90;;;;;;5043136;28;20259;-80
2022/03/03 05:28:03;;;;;;;57.60;30.33;;;-0.20;99.90;;;;;;5071582;28;20140;-80
2022/03/03 05:30:48;;;;;;;58.20;32.00;;;-0.20;99.90;;;;;;5057232;28;20034;-81
2022/03/03 05:33:33;;;;;;;53.60;29.53;;;-0.20;99.90;;;;;;5056949;28;20064;-80
2022/03/03 05:36:17;;;;;;;52.57;28.00;;;0.00;99.90;;;;;;5072655;28;20086;-80
2022/03/03 05:39:01;;;;;;;;;;;0.20;99.90;;;;;;5076106;28;20046;-80
2022/03/03 05:41:46;;;;;;;51.70;27.80;;;-0.30;99.90;;;;;;5077697;28;19915;-80
2022/03/03 05:44:30;;;;;;;55.83;30.77;;;-0.30;99.90;;;;;;5076214;28;20447;-80
2022/03/03 05:47:15;;;;;;;56.47;29.80;;;0.10;99.90;;;;;;5075300;28;20047;-80
2022/03/03 05:50:01;;;;;;;55.60;29.40;;;-0.30;99.90;;;;;;5075432;28;20511;-80
2022/03/03 05:52:45;;;;;;;52.07;29.57;;;-0.30;99.90;;;;;;5076106;28;20079;-80
2022/03/03 05:55:30;;;;;;;;;;;-0.30;99.90;;;;;;5076417;28;20047;-80
2022/03/03 05:58:16;;;;;;;50.47;26.87;;;-0.40;99.90;;;;;;5075125;28;19974;-80
2022/03/03 06:01:01;;;;;;;54.00;29.80;;;-0.40;99.90;;;;;;5087426;28;20035;-80
2022/03/03 06:03:48;;;;;;;53.77;29.70;;;-0.50;99.90;;;;;;5080307;28;20499;-80
2022/03/03 06:06:36;;;;;;;49.77;28.50;;;-0.50;99.90;;;;;;5095837;28;20101;-80
2022/03/03 06:09:27;;;;;;;51.83;28.67;;;-0.50;99.90;;;;;;5080532;28;20391;-80
2022/03/03 06:12:20;;;;;;;54.83;28.87;;;-0.50;99.90;;;;;;5079590;28;20113;-80
2022/03/03 06:15:06;;;;;;;37.70;22.05;;;-0.50;99.90;;;;;;5095179;28;20058;-80
2022/03/03 06:17:50;;;;;;;52.50;28.57;;;-0.50;99.90;;;;;;5080286;28;20044;-80
2022/03/03 06:20:37;;;;;;;53.77;28.17;;;-0.50;99.90;;;;;;5094537;28;20526;-81
2022/03/03 06:23:21;;;;;;;52.93;30.40;;;-0.60;99.90;;;;;;5080903;28;20119;-80
2022/03/03 06:26:16;;;;;;;50.57;27.70;;;-0.60;99.90;;;;;;5074201;28;20046;-80
2022/03/03 06:29:00;;;;;;;53.77;28.13;;;-0.60;99.90;;;;;;5089366;28;20479;-81
2022/03/03 06:31:45;;;;;;;52.60;29.67;;;-0.60;99.90;;;;;;5094661;28;20554;-80
2022/03/03 06:34:29;;;;;;;50.00;27.73;;;-0.30;99.90;;;;;;5094676;28;20039;-80
2022/03/03 06:37:13;;;;;;;48.77;28.20;;;-0.50;99.90;;;;;;5076350;28;20042;-80
2022/03/03 06:39:57;;;;;;;;;;;-0.60;99.90;;;;;;5082169;28;20400;-82
2022/03/03 06:42:42;;;;;;;52.38;29.63;;;-0.50;99.90;;;;;;5088239;28;19960;-81
2022/03/03 06:45:27;;;;;;;52.30;29.20;;;-0.40;99.90;;;;;;5076084;28;20051;-80
2022/03/03 06:48:13;;;;;;;54.83;30.70;;;-0.60;99.90;;;;;;5073211;28;20060;-80
2022/03/03 06:51:02;;;;;;;56.03;29.87;;;-0.50;99.90;;;;;;5093950;28;20094;-81
2022/03/03 06:53:52;;;;;;;52.57;30.13;;;-0.50;99.90;;;;;;5078261;28;20086;-81
2022/03/03 06:56:45;;;;;;;52.17;28.67;;;0.10;99.90;;;;;;5087164;28;20110;-81
2022/03/03 06:59:34;;;;;;;56.63;30.77;;;-0.50;99.90;;;;;;5077432;28;20085;-82
2022/03/03 07:02:19;;;;;;;52.77;29.90;;;0.40;99.90;;;;;;5086423;28;20036;-78
2022/03/03 07:05:03;;;;;;;50.43;27.67;;;-0.40;99.90;;;;;;5090134;28;20093;-80
2022/03/03 07:07:49;;;;;;;56.83;29.80;;;-0.30;99.90;;;;;;5075432;28;20039;-79
2022/03/03 07:10:35;;;;;;;49.67;28.80;;;-0.30;99.90;;;;;;5093253;28;20063;-80
2022/03/03 07:13:20;;;;;;;49.97;28.53;;;-0.30;99.90;;;;;;5092115;28;20556;-80
2022/03/03 07:16:21;;;;;;;50.03;29.60;;;0.20;99.90;;;;;;5072673;28;20054;-81
2022/03/03 07:19:18;;;;;;;49.20;28.73;;;-0.20;99.90;;;;;;5093070;28;20031;-80
2022/03/03 07:22:09;;;;;;;56.83;29.23;;;-0.10;99.90;;;;;;5086681;28;20094;-82
2022/03/03 07:25:08;;;;;;;45.73;28.10;;;0.00;99.90;;;;;;5091850;28;20495;-80
2022/03/03 07:27:54;;;;;;;54.23;29.03;;;0.10;99.90;;;;;;5087614;28;20089;-80
2022/03/03 07:30:41;;;;;;;48.37;29.00;;;0.20;99.90;;;;;;5075492;28;20066;-80
2022/03/03 07:33:38;;;;;;;52.80;30.93;;;0.30;99.90;;;;;;5093549;28;20102;-80
2022/03/03 07:36:28;;;;;;;48.43;28.17;;;0.70;99.90;;;;;;5093554;28;20089;-80
2022/03/03 07:39:16;;;;;;;46.70;27.87;;;2.70;99.90;;;;;;5093255;28;20043;-80
2022/03/03 07:42:00;;;;;;;44.83;26.70;;;3.40;99.90;;;;;;5088339;28;20059;-79
2022/03/03 07:44:46;;;;;;;48.17;28.03;;;4.50;99.90;;;;;;5058850;28;20121;-80
2022/03/03 07:47:31;;;;;;;44.20;27.90;;;4.80;99.90;;;;;;5068955;28;20149;-80
2022/03/03 07:50:15;;;;;;;43.40;27.02;;;5.80;99.90;;;;;;5051940;28;20083;-80
2022/03/03 07:52:59;;;;;;;;;;;6.30;99.90;;;;;;5054019;28;20052;-81
2022/03/03 07:55:46;;;;;;;39.95;25.55;;;7.10;99.90;;;;;;5068114;28;20000;-81
2022/03/03 07:58:33;;;;;;;40.30;25.40;;;7.80;99.90;;;;;;5054435;28;20095;-80
2022/03/03 08:01:19;;;;;;;40.53;27.33;;;8.20;99.90;;;;;;5052277;28;20048;-81
2022/03/03 08:04:03;;;;;;;38.30;25.10;;;8.60;99.90;;;;;;5055792;28;20040;-80
2022/03/03 08:06:48;;;;;;;43.38;26.40;;;9.00;99.90;;;;;;5053221;28;20040;-81
2022/03/03 08:09:33;;;;;;;36.83;25.02;;;9.00;99.90;;;;;;5052650;28;20048;-81
2022/03/03 08:12:21;;;;;;;40.20;25.02;;;9.10;99.90;;;;;;5037615;28;20493;-81
2022/03/03 08:15:07;;;;;;;37.65;24.33;;;9.20;99.30;;;;;;5053241;28;20532;-80
2022/03/03 08:17:53;;;;;;;40.05;24.70;;;9.30;98.40;;;;;;5053165;28;20460;-79
2022/03/03 08:20:39;;;;;;;39.45;26.30;;;9.10;97.50;;;;;;5053087;28;20120;-79
2022/03/03 08:23:26;;;;;;;42.33;26.13;;;8.50;96.70;;;;;;5037558;28;20100;-79
2022/03/03 08:26:12;;;;;;;39.83;24.77;;;7.90;98.30;;;;;;5058527;28;20064;-81
2022/03/03 08:28:57;;;;;;;42.15;27.15;;;7.60;98.70;;;;;;5053673;28;20565;-80
2022/03/03 08:31:44;;;;;;;43.47;25.80;;;7.60;98.60;;;;;;5024025;28;20040;-80
2022/03/03 08:34:43;;;;;;;39.80;25.98;;;7.50;97.90;;;;;;5037080;28;20346;-80
2022/03/03 08:37:39;;;;;;;43.60;26.25;;;7.10;98.00;;;;;;5052183;28;20039;-80
2022/03/03 08:40:25;;;;;;;39.40;25.15;;;6.70;98.20;;;;;;5049962;28;20039;-80
2022/03/03 08:43:12;;;;;;;37.83;26.23;;;6.10;99.90;;;;;;5070238;28;20040;-80
2022/03/03 08:46:03;;;;;;;36.13;23.38;;;5.80;99.90;;;;;;5054722;28;20142;-80
2022/03/03 08:48:50;;;;;;;37.88;24.23;;;5.50;99.90;;;;;;5081552;28;20191;-80
2022/03/03 08:51:37;;;;;;;38.17;24.27;;;5.40;99.90;;;;;;5076722;28;20093;-80
2022/03/03 08:54:21;;;;;;;42.28;23.00;;;5.50;99.90;;;;;;5071909;28;20171;-79
2022/03/03 08:57:06;;;;;;;39.53;23.33;;;5.90;99.90;;;;;;5072587;28;20043;-81
2022/03/03 08:59:50;;;;;;;38.90;22.75;;;6.40;99.90;;;;;;5072604;28;20044;-80
2022/03/03 09:02:34;;;;;;;;;;;7.30;99.90;;;;;;5072265;28;20052;-83
2022/03/03 09:05:19;;;;;;;35.05;22.33;;;8.10;97.30;;;;;;5090056;28;20354;-81
2022/03/03 09:08:04;;;;;;;33.63;22.10;;;9.00;98.90;;;;;;5076602;28;20030;-81
2022/03/03 09:10:49;;;;;;;35.03;23.50;;;9.10;96.20;;;;;;5077032;28;20469;-81
2022/03/03 09:13:34;;;;;;;35.05;21.48;;;9.30;95.90;;;;;;5091890;28;20498;-80
2022/03/03 09:16:18;;;;;;;34.25;22.05;;;9.20;95.60;;;;;;5076669;28;20537;-79
2022/03/03 09:19:03;;;;;;;29.73;19.90;;;8.90;95.60;;;;;;5077610;28;20082;-80
2022/03/03 09:21:47;;;;;;;30.45;20.13;;;8.60;95.50;;;;;;5076080;28;20040;-79
2022/03/03 09:24:31;;;;;;;31.38;19.42;;;8.50;95.60;;;;;;5063840;28;20102;-79
2022/03/03 09:27:15;;;;;;;29.85;19.52;;;7.70;96.30;;;;;;5071792;28;20051;-80
2022/03/03 09:30:00;;;;;;;30.33;19.85;;;7.30;97.40;;;;;;5059903;28;20503;-80
2022/03/03 09:32:45;;;;;;;28.67;19.73;;;7.70;98.50;;;;;;5085289;28;20047;-79
2022/03/03 09:35:30;;;;;;;27.48;17.98;;;7.30;98.40;;;;;;5091535;28;20043;-81
2022/03/03 09:38:14;;;;;;;30.75;18.75;;;7.20;98.50;;;;;;5092330;28;20138;-80
2022/03/03 09:40:58;;;;;;;26.65;17.70;;;7.10;98.30;;;;;;5092002;28;20624;-80
2022/03/03 09:43:43;;;;;;;;;;;7.10;98.30;;;;;;5092028;28;20094;-79
2022/03/03 09:46:27;;;;;;;27.92;16.42;;;7.10;97.00;;;;;;5091471;28;20027;-80
2022/03/03 09:49:12;;;;;;;26.83;17.98;;;7.00;98.90;;;;;;5091662;28;20109;-80
2022/03/03 09:51:56;;;;;;;27.63;18.05;;;7.00;97.80;;;;;;5092057;28;20085;-79
2022/03/03 09:54:42;;;;;;;24.95;16.00;;;7.20;99.90;;;;;;5076221;28;20400;-79
2022/03/03 09:57:28;;;;;;;23.80;16.30;;;;;;;;;;5082563;28;20128;-81
2022/03/03 10:00:12;;;;;;;25.73;16.75;;;7.30;99.90;;;;;;5070429;28;20115;-80
2022/03/03 10:03:08;;;;;;;24.85;16.52;;;7.60;96.60;;;;;;5078058;28;20035;-80
2022/03/03 10:05:53;;;;;;;23.05;15.95;;;8.60;95.20;;;;;;5091807;28;20101;-79
2022/03/03 10:08:38;;;;;;;26.48;15.55;;;;;;;;;;5071264;28;20400;-80
2022/03/03 10:11:23;;;;;;;22.45;16.48;;;9.00;94.40;;;;;;5071328;28;20051;-81
2022/03/03 10:14:07;;;;;;;;;;;9.30;93.70;;;;;;5068979;28;20396;-80
2022/03/03 10:16:51;;;;;;;24.25;16.35;;;9.40;93.30;;;;;;5048132;28;19957;-81
2022/03/03 10:19:49;;;;;;;24.73;16.30;;;9.40;93.60;;;;;;5075423;28;20051;-80
2022/03/03 10:22:50;;;;;;;25.20;16.65;;;9.70;93.80;;;;;;5075816;28;20074;-82
2022/03/03 10:25:41;;;;;;;21.17;15.27;;;10.30;92.50;;;;;;5079639;28;20089;-81
2022/03/03 10:28:32;;;;;;;22.88;15.35;;;11.10;91.30;;;;;;5095378;28;20094;-83
2022/03/03 10:31:20;;;;;;;25.15;15.38;;;11.80;90.10;;;;;;5078237;28;20093;-82
2022/03/03 10:34:14;;;;;;;22.80;15.73;;;12.40;86.30;;;;;;5095404;28;20522;-81
2022/03/03 10:37:07;;;;;;;19.55;13.82;;;12.80;82.70;;;;;;5075547;28;20047;-81
2022/03/03 10:39:59;;;;;;;21.15;14.30;;;13.10;74.70;;;;;;5076824;28;20039;-79
2022/03/03 10:42:48;;;;;;;20.02;13.38;;;13.00;73.60;;;;;;5081344;28;20127;-80
2022/03/03 10:45:34;;;;;;;21.08;13.82;;;12.90;72.20;;;;;;5082839;28;20487;-82
2022/03/03 10:48:24;;;;;;;19.05;13.07;;;12.60;71.70;;;;;;5091602;28;20051;-81
2022/03/03 10:51:11;;;;;;;21.60;13.48;;;;;;;;;;5079790;28;20063;-81
2022/03/03 10:54:03;;;;;;;19.48;14.30;;;11.40;73.30;;;;;;5079362;28;20495;-81
2022/03/03 10:56:49;;;;;;;20.33;14.43;;;11.00;72.60;;;;;;5075523;28;20087;-80
2022/03/03 10:59:34;;;;;;;27.90;13.98;;;10.70;74.60;;;;;;5059046;28;20040;-78
2022/03/03 11:02:19;;;;;;;25.17;15.00;;;10.40;76.00;;;;;;5074967;28;20496;-81
2022/03/03 11:05:05;;;;;;;21.90;13.50;;;10.30;77.60;;;;;;5061322;28;20048;-81
2022/03/03 11:07:50;;;;;;;17.52;14.13;;;10.40;78.10;;;;;;5060144;28;20539;-82
2022/03/03 11:10:34;;;;;;;20.35;13.68;;;10.60;77.10;;;;;;5082757;28;20035;-83
2022/03/03 11:13:18;;;;;;;19.23;13.55;;;10.90;76.70;;;;;;5054052;28;20073;-81
2022/03/03 11:16:04;;;;;;;20.58;14.13;;;11.10;73.80;;;;;;5070193;28;20440;-82
2022/03/03 11:18:49;;;;;;;21.98;14.07;;;11.20;74.00;;;;;;5074207;28;20086;-82
2022/03/03 11:21:33;;;;;;;23.92;13.45;;;11.00;74.20;;;;;;5074477;28;20047;-83
2022/03/03 11:24:19;;;;;;;17.95;12.63;;;10.80;74.90;;;;;;5061012;28;20123;-82
2022/03/03 11:27:05;;;;;;;17.67;12.82;;;10.60;75.10;;;;;;5074637;28;20085;-81
2022/03/03 11:30:12;;;;;;;17.40;12.70;;;10.50;76.00;;;;;;5074569;28;20074;-81
2022/03/03 11:33:21;;;;;;;18.55;12.63;;;10.30;74.90;;;;;;5073855;28;20090;-80
2022/03/03 11:36:09;;;;;;;21.33;13.73;;;10.40;74.90;;;;;;5075276;28;20055;-82
2022/03/03 11:38:55;;;;;;;20.27;14.63;;;10.40;74.20;;;;;;5074574;28;20039;-82
2022/03/03 11:41:49;;;;;;;19.55;13.80;;;10.40;75.00;;;;;;5087560;28;20043;-82
2022/03/03 11:44:36;;;;;;;21.85;16.48;;;10.30;75.80;;;;;;5095000;28;20039;-83
2022/03/03 11:47:25;;;;;;;26.83;15.30;;;10.10;76.00;;;;;;5072159;28;20071;-81
2022/03/03 11:50:19;;;;;;;20.92;14.65;;;10.10;74.50;;;;;;5073805;28;20091;-81
2022/03/03 11:53:03;;;;;;;21.00;15.07;;;10.50;76.30;;;;;;5073514;28;20101;-79
2022/03/03 11:55:55;;;;;;;21.35;15.30;;;9.80;75.20;;;;;;5073239;28;20105;-79
2022/03/03 11:58:41;;;;;;;21.58;14.98;;;9.70;77.00;;;;;;5077110;28;20039;-82
2022/03/03 12:01:25;;;;;;;25.15;15.82;;;9.80;77.60;;;;;;5094061;28;20110;-81
2022/03/03 12:04:13;;;;;;;21.35;15.40;;;10.00;78.40;;;;;;5078810;28;20499;-81
2022/03/03 12:06:58;;;;;;;20.73;14.50;;;10.10;75.80;;;;;;5077949;28;20158;-81
2022/03/03 12:09:46;;;;;;;22.73;15.82;;;10.10;77.40;;;;;;5074728;28;20126;-82
2022/03/03 12:12:31;;;;;;;23.27;16.13;;;10.10;77.80;;;;;;5058592;28;20098;-81
2022/03/03 12:15:16;;;;;;;23.58;16.35;;;10.20;77.90;;;;;;5051087;28;20071;-82
2022/03/03 12:18:01;;;;;;;21.25;15.52;;;10.30;77.10;;;;;;5058246;28;20038;-81
2022/03/03 12:20:46;;;;;;;21.25;15.98;;;10.30;77.30;;;;;;5072908;28;20450;-81
2022/03/03 12:23:35;;;;;;;23.42;16.08;;;10.50;78.10;;;;;;5072955;28;20075;-81
2022/03/03 12:26:19;;;;;;;22.92;16.20;;;10.60;76.70;;;;;;5073600;28;20401;-80
2022/03/03 12:29:35;;;;;;;22.38;16.02;;;10.60;76.00;;;;;;5060667;28;20043;-82
2022/03/03 12:32:24;;;;;;;20.85;14.65;;;10.40;75.50;;;;;;5093858;28;20425;-80
2022/03/03 12:35:23;;;;;;;20.70;14.60;;;10.50;76.10;;;;;;5077782;28;20395;-80
2022/03/03 12:38:11;;;;;;;21.90;15.32;;;10.50;76.10;;;;;;5076559;28;20486;-82
2022/03/03 12:40:55;;;;;;;21.80;15.80;;;10.60;76.70;;;;;;5093075;28;20043;-82
2022/03/03 12:43:41;;;;;;;22.50;15.60;;;10.70;77.00;;;;;;5076168;28;20133;-80
2022/03/03 12:46:26;;;;;;;24.05;15.10;;;10.80;75.80;;;;;;5076918;28;20051;-81
2022/03/03 12:49:15;;;;;;;21.52;16.33;;;10.70;75.50;;;;;;5092536;28;20132;-82
2022/03/03 12:52:03;;;;;;;22.50;15.77;;;10.80;74.90;;;;;;5092286;28;20070;-81
2022/03/03 12:54:52;;;;;;;20.67;15.60;;;10.90;75.70;;;;;;5076389;28;20495;-82
2022/03/03 12:57:39;;;;;;;21.55;14.45;;;11.00;74.30;;;;;;5092509;28;20066;-79
2022/03/03 13:00:25;;;;;;;19.05;13.80;;;11.00;73.80;;;;;;5072571;28;20113;-79
2022/03/03 13:03:10;;;;;;;21.23;14.43;;;11.10;73.50;;;;;;5075359;28;20163;-80
2022/03/03 13:05:58;;;;;;;21.35;12.70;;;11.20;74.20;;;;;;5091975;28;20043;-79
2022/03/03 13:08:42;;;;;;;18.40;12.93;;;11.30;73.40;;;;;;5092471;28;20081;-79
2022/03/03 13:11:27;;;;;;;;;;;11.40;72.40;;;;;;5076921;28;20105;-79
2022/03/03 13:14:11;;;;;;;19.40;13.88;;;11.40;72.30;;;;;;5091090;28;19939;-79
2022/03/03 13:16:55;;;;;;;21.30;15.57;;;11.40;72.70;;;;;;5089907;28;20047;-79
2022/03/03 13:19:47;;;;;;;;;;;11.40;71.40;;;;;;5087485;28;20046;-80
2022/03/03 13:22:36;;;;;;;17.95;13.32;;;11.40;69.20;;;;;;5071989;28;19915;-79
2022/03/03 13:25:21;;;;;;;20.25;13.40;;;11.50;71.90;;;;;;5071968;28;20087;-79
2022/03/03 13:28:07;;;;;;;23.25;14.90;;;11.60;71.30;;;;;;5071339;28;20098;-81
2022/03/03 13:30:51;;;;;;;22.17;14.00;;;11.60;71.00;;;;;;5085228;28;20537;-82
2022/03/03 13:33:45;;;;;;;20.88;13.52;;;11.60;70.30;;;;;;5076894;28;20039;-80
2022/03/03 13:36:41;;;;;;;19.10;13.95;;;11.60;70.10;;;;;;5091929;28;20499;-80
2022/03/03 13:39:28;;;;;;;18.70;13.88;;;11.70;70.20;;;;;;5091032;28;20058;-79
2022/03/03 13:42:15;;;;;;;21.30;13.75;;;11.70;69.70;;;;;;5091337;28;20035;-80
2022/03/03 13:44:59;;;;;;;17.00;12.50;;;11.70;69.20;;;;;;5091363;28;20123;-79
2022/03/03 13:47:43;;;;;;;19.05;13.20;;;11.50;68.40;;;;;;5063494;28;20122;-80
2022/03/03 13:50:28;;;;;;;18.08;13.30;;;11.80;68.80;;;;;;5071675;28;20044;-80
2022/03/03 13:53:26;;;;;;;15.75;11.63;;;11.70;66.20;;;;;;5055846;28;20126;-80
2022/03/03 13:56:12;;;;;;;23.58;14.00;;;11.60;65.10;;;;;;5070996;28;20047;-80
2022/03/03 13:59:09;;;;;;;19.13;12.48;;;11.60;66.30;;;;;;5059507;28;20400;-81
2022/03/03 14:01:53;;;;;;;20.85;15.00;;;11.50;66.70;;;;;;5094848;28;20031;-81
2022/03/03 14:04:37;;;;;;;;;;;11.60;66.90;;;;;;5096297;28;20043;-80
2022/03/03 14:07:30;;;;;;;19.75;13.05;;;11.60;67.30;;;;;;5079489;28;20011;-80
2022/03/03 14:10:15;;;;;;;19.50;13.63;;;11.60;67.60;;;;;;5075548;28;20570;-80
2022/03/03 14:13:04;;;;;;;18.75;13.25;;;11.60;67.10;;;;;;5074822;28;20047;-80
2022/03/03 14:15:50;;;;;;;19.58;14.35;;;11.60;67.60;;;;;;5080626;28;20109;-79
2022/03/03 14:18:35;;;;;;;19.20;13.75;;;11.50;68.00;;;;;;5088642;28;20044;-79
2022/03/03 14:21:19;;;;;;;22.25;14.65;;;11.60;68.20;;;;;;5068464;28;20048;-80
2022/03/03 14:24:05;;;;;;;19.83;14.15;;;11.60;68.00;;;;;;5074792;28;20483;-81
2022/03/03 14:26:49;;;;;;;19.58;14.43;;;11.50;67.70;;;;;;5078823;28;20038;-81
2022/03/03 14:29:33;;;;;;;22.75;15.77;;;11.40;68.50;;;;;;5095393;28;20541;-77
2022/03/03 14:32:18;;;;;;;21.45;14.93;;;11.50;69.10;;;;;;5094793;28;20071;-78